createdAt,value
2018-03-06T00:00:21.916Z,8.60
2018-03-06T00:01:21.902Z,11.30
2018-03-06T00:02:21.903Z,9.30
2018-03-06T00:03:21.883Z,9.80
2018-03-06T00:04:21.848Z,11.60
2018-03-06T00:05:21.832Z,9.60
2018-03-06T00:06:21.826Z,10.40
2018-03-06T00:07:21.805Z,9.90
2018-03-06T00:08:21.831Z,10.30
2018-03-06T00:09:21.761Z,10.30
2018-03-06T00:10:21.752Z,9.50
2018-03-06T00:11:21.731Z,10.20
2018-03-06T00:12:21.714Z,11.50
2018-03-06T00:13:21.721Z,11.60
2018-03-06T00:14:21.696Z,10.80
2018-03-06T00:15:21.663Z,10.50
2018-03-06T00:16:21.648Z,10.80
2018-03-06T00:17:21.632Z,11.40
2018-03-06T00:18:21.625Z,10.40
2018-03-06T00:19:21.626Z,11.20
2018-03-06T00:20:21.584Z,10.50
2018-03-06T00:21:21.562Z,10.40
2018-03-06T00:22:21.544Z,10.30
2018-03-06T00:23:21.526Z,11.70
2018-03-06T00:24:21.511Z,11.90
2018-03-06T00:25:21.525Z,11.30
2018-03-06T00:26:21.516Z,9.80
2018-03-06T00:27:21.473Z,10.40
2018-03-06T00:28:21.443Z,10.30
2018-03-06T00:29:21.430Z,10.10
2018-03-06T00:30:21.404Z,10.10
2018-03-06T00:31:21.414Z,10.30
2018-03-06T00:32:21.413Z,11.00
2018-03-06T00:33:21.360Z,11.40
2018-03-06T00:34:21.342Z,11.80
2018-03-06T00:35:21.329Z,11.40
2018-03-06T00:36:21.306Z,11.00
2018-03-06T00:37:21.310Z,11.30
2018-03-06T00:38:21.301Z,10.70
2018-03-06T00:39:21.256Z,12.00
2018-03-06T00:40:21.244Z,12.10
2018-03-06T00:41:21.230Z,10.90
2018-03-06T00:42:42.221Z,11.00
2018-03-06T00:43:21.212Z,12.50
2018-03-06T00:44:21.207Z,11.60
2018-03-06T00:45:21.156Z,11.60
2018-03-06T00:46:21.135Z,11.60
2018-03-06T00:47:21.120Z,12.90
2018-03-06T00:48:21.120Z,12.10
2018-03-06T00:49:21.087Z,12.80
2018-03-06T00:50:21.118Z,12.70
2018-03-06T00:51:21.066Z,11.60
2018-03-06T00:52:21.052Z,13.10
2018-03-06T00:53:21.022Z,12.40
2018-03-06T00:54:21.005Z,13.20
2018-03-06T00:55:20.991Z,11.90
2018-03-06T00:56:20.971Z,13.40
2018-03-06T00:57:20.964Z,12.90
2018-03-06T00:58:20.961Z,12.30
2018-03-06T00:59:20.917Z,13.30
2018-03-06T01:00:20.900Z,13.60
2018-03-06T01:01:20.879Z,14.00
2018-03-06T01:02:20.879Z,13.30
2018-03-06T01:03:20.850Z,13.60
2018-03-06T01:04:20.845Z,13.30
2018-03-06T01:05:20.815Z,12.80
2018-03-06T01:06:20.797Z,12.70
2018-03-06T01:07:20.778Z,14.40
2018-03-06T01:08:20.766Z,13.80
2018-03-06T01:09:20.757Z,15.40
2018-03-06T01:10:20.724Z,13.60
2018-03-06T01:11:20.713Z,12.70
2018-03-06T01:12:20.690Z,14.10
2018-03-06T01:13:20.676Z,13.40
2018-03-06T01:14:20.715Z,12.80
2018-03-06T01:15:20.646Z,15.10
2018-03-06T01:16:20.647Z,13.90
2018-03-06T01:17:20.618Z,14.20
2018-03-06T01:18:20.588Z,13.90
2018-03-06T01:19:20.574Z,13.30
2018-03-06T01:20:20.559Z,13.40
2018-03-06T01:21:20.555Z,13.50
2018-03-06T01:22:20.526Z,14.40
2018-03-06T01:23:20.501Z,13.30
2018-03-06T01:24:20.498Z,14.40
2018-03-06T01:25:20.469Z,14.20
2018-03-06T01:26:20.496Z,13.20
2018-03-06T01:27:20.447Z,14.10
2018-03-06T01:28:20.421Z,16.20
2018-03-06T01:29:20.403Z,13.90
2018-03-06T01:30:20.384Z,14.00
2018-03-06T01:31:20.380Z,13.50
2018-03-06T01:32:20.369Z,14.50
2018-03-06T01:33:20.332Z,14.00
2018-03-06T01:34:20.332Z,14.30
2018-03-06T01:35:20.304Z,14.30
2018-03-06T01:36:20.279Z,14.10
2018-03-06T01:37:20.275Z,15.70
2018-03-06T01:38:20.247Z,15.90
2018-03-06T01:39:20.246Z,15.50
2018-03-06T01:40:20.214Z,15.30
2018-03-06T01:41:20.191Z,14.40
2018-03-06T01:42:20.181Z,14.40
2018-03-06T01:43:20.177Z,14.90
2018-03-06T01:44:20.146Z,14.60
2018-03-06T01:45:20.124Z,14.00
2018-03-06T01:46:20.104Z,14.10
2018-03-06T01:47:20.095Z,14.20
2018-03-06T01:48:20.074Z,14.20
2018-03-06T01:49:20.076Z,14.90
2018-03-06T01:50:20.052Z,14.70
2018-03-06T01:51:20.028Z,14.20
2018-03-06T01:52:20.013Z,16.00
2018-03-06T01:53:19.989Z,15.20
2018-03-06T01:54:19.974Z,14.60
2018-03-06T01:55:19.984Z,15.20
2018-03-06T01:56:19.934Z,14.50
2018-03-06T01:57:19.925Z,14.20
2018-03-06T01:58:19.907Z,14.90
2018-03-06T01:59:19.900Z,15.80
2018-03-06T02:00:19.870Z,14.00
2018-03-06T02:01:19.878Z,14.70
2018-03-06T02:02:19.833Z,14.30
2018-03-06T02:03:19.819Z,14.60
2018-03-06T02:04:19.806Z,16.20
2018-03-06T02:05:19.801Z,14.60
2018-03-06T02:06:19.783Z,15.70
2018-03-06T02:07:19.750Z,16.80
2018-03-06T02:08:19.733Z,15.40
2018-03-06T02:09:19.711Z,15.70
2018-03-06T02:10:19.704Z,14.30
2018-03-06T02:11:19.702Z,14.70
2018-03-06T02:12:19.671Z,17.10
2018-03-06T02:13:19.656Z,16.20
2018-03-06T02:14:19.630Z,14.20
2018-03-06T02:15:19.618Z,14.90
2018-03-06T02:16:19.619Z,16.40
2018-03-06T02:17:19.576Z,13.90
2018-03-06T02:18:19.573Z,15.80
2018-03-06T02:19:19.542Z,15.30
2018-03-06T02:20:19.540Z,14.40
2018-03-06T02:21:19.514Z,16.90
2018-03-06T02:22:19.511Z,15.20
2018-03-06T02:23:19.489Z,15.00
2018-03-06T02:24:19.461Z,14.50
2018-03-06T02:25:19.444Z,15.00
2018-03-06T02:26:19.439Z,15.20
2018-03-06T02:27:19.409Z,15.30
2018-03-06T02:28:19.392Z,16.10
2018-03-06T02:29:19.391Z,16.50
2018-03-06T02:30:19.359Z,15.50
2018-03-06T02:31:19.344Z,16.70
2018-03-06T02:32:19.344Z,15.10
2018-03-06T02:33:19.307Z,15.70
2018-03-06T02:34:40.307Z,16.50
2018-03-06T02:35:19.272Z,15.50
2018-03-06T02:36:19.261Z,16.50
2018-03-06T02:37:19.237Z,15.10
2018-03-06T02:38:19.225Z,16.90
2018-03-06T02:39:19.224Z,16.50
2018-03-06T02:40:19.189Z,16.40
2018-03-06T02:41:19.170Z,17.30
2018-03-06T02:42:19.166Z,16.20
2018-03-06T02:43:19.137Z,16.60
2018-03-06T02:44:19.119Z,16.00
2018-03-06T02:45:19.114Z,18.10
2018-03-06T02:46:19.095Z,18.00
2018-03-06T02:47:19.101Z,16.50
2018-03-06T02:48:19.050Z,17.10
2018-03-06T02:49:19.039Z,17.10
2018-03-06T02:50:19.018Z,16.40
2018-03-06T02:51:19.000Z,16.90
2018-03-06T02:52:18.986Z,17.90
2018-03-06T02:53:18.982Z,16.90
2018-03-06T02:54:18.968Z,17.20
2018-03-06T02:55:18.947Z,19.00
2018-03-06T02:56:18.918Z,17.10
2018-03-06T02:57:18.900Z,17.30
2018-03-06T02:58:18.876Z,18.50
2018-03-06T02:59:18.881Z,17.60
2018-03-06T03:00:18.848Z,18.10
2018-03-06T03:01:18.852Z,20.10
2018-03-06T03:02:18.815Z,17.70
2018-03-06T03:03:18.798Z,17.30
2018-03-06T03:04:18.797Z,18.70
2018-03-06T03:05:18.785Z,18.60
2018-03-06T03:06:18.747Z,18.50
2018-03-06T03:07:18.727Z,18.20
2018-03-06T03:08:18.709Z,18.70
2018-03-06T03:09:18.712Z,18.90
2018-03-06T03:10:18.673Z,18.30
2018-03-06T03:11:18.662Z,19.10
2018-03-06T03:12:18.648Z,19.00
2018-03-06T03:13:18.637Z,19.10
2018-03-06T03:14:18.630Z,20.60
2018-03-06T03:15:18.594Z,19.60
2018-03-06T03:16:18.576Z,18.70
2018-03-06T03:17:18.556Z,21.20
2018-03-06T03:18:18.563Z,20.00
2018-03-06T03:19:18.536Z,19.90
2018-03-06T03:20:18.503Z,19.70
2018-03-06T03:21:18.490Z,20.40
2018-03-06T03:22:18.471Z,18.40
2018-03-06T03:23:18.458Z,19.30
2018-03-06T03:24:18.435Z,19.90
2018-03-06T03:25:18.436Z,20.10
2018-03-06T03:26:18.406Z,21.20
2018-03-06T03:27:18.430Z,19.50
2018-03-06T03:28:18.371Z,19.50
2018-03-06T03:29:18.350Z,20.60
2018-03-06T03:30:18.340Z,19.90
2018-03-06T03:31:18.318Z,21.00
2018-03-06T03:32:18.301Z,20.40
2018-03-06T03:33:18.302Z,22.30
2018-03-06T03:34:18.262Z,21.00
2018-03-06T03:35:18.250Z,20.40
2018-03-06T03:36:18.233Z,21.10
2018-03-06T03:37:18.231Z,19.40
2018-03-06T03:38:18.212Z,21.00
2018-03-06T03:39:18.196Z,20.70
2018-03-06T03:40:18.166Z,21.80
2018-03-06T03:41:18.142Z,20.20
2018-03-06T03:42:18.157Z,20.50
2018-03-06T03:43:18.110Z,20.40
2018-03-06T03:44:18.110Z,20.90
2018-03-06T03:45:18.088Z,21.00
2018-03-06T03:46:18.061Z,23.00
2018-03-06T03:47:18.045Z,21.40
2018-03-06T03:48:18.025Z,23.20
2018-03-06T03:49:18.025Z,21.80
2018-03-06T03:50:17.994Z,20.40
2018-03-06T03:51:17.980Z,21.30
2018-03-06T03:52:17.961Z,20.00
2018-03-06T03:53:17.946Z,21.10
2018-03-06T03:54:17.939Z,22.40
2018-03-06T03:55:17.920Z,23.40
2018-03-06T03:56:17.890Z,20.80
2018-03-06T03:57:17.877Z,21.00
2018-03-06T03:58:17.886Z,23.10
2018-03-06T03:59:17.845Z,22.00
2018-03-06T04:00:17.841Z,21.30
2018-03-06T04:01:17.823Z,22.50
2018-03-06T04:02:17.788Z,23.40
2018-03-06T04:03:17.771Z,22.30
2018-03-06T04:04:17.772Z,23.20
2018-03-06T04:05:17.736Z,21.90
2018-03-06T04:06:17.724Z,22.30
2018-03-06T04:07:17.726Z,24.60
2018-03-06T04:08:17.691Z,22.90
2018-03-06T04:09:17.670Z,22.90
2018-03-06T04:10:17.653Z,24.10
2018-03-06T04:11:17.632Z,24.70
2018-03-06T04:12:17.611Z,23.70
2018-03-06T04:13:17.615Z,23.00
2018-03-06T04:14:17.582Z,25.60
2018-03-06T04:15:17.563Z,24.70
2018-03-06T04:16:17.570Z,25.00
2018-03-06T04:17:17.535Z,24.10
2018-03-06T04:18:17.518Z,25.30
2018-03-06T04:19:17.494Z,26.10
2018-03-06T04:20:17.492Z,22.70
2018-03-06T04:21:17.459Z,23.80
2018-03-06T04:22:17.472Z,25.10
2018-03-06T04:23:17.437Z,24.10
2018-03-06T04:24:17.427Z,25.60
2018-03-06T04:25:17.388Z,23.20
2018-03-06T04:26:17.376Z,24.20
2018-03-06T04:27:17.362Z,25.60
2018-03-06T04:28:17.357Z,24.50
2018-03-06T04:29:17.327Z,25.00
2018-03-06T04:30:17.304Z,22.90
2018-03-06T04:31:17.282Z,24.90
2018-03-06T04:32:17.290Z,23.00
2018-03-06T04:33:17.258Z,24.40
2018-03-06T04:34:17.238Z,24.10
2018-03-06T04:35:17.216Z,24.40
2018-03-06T04:36:17.203Z,24.70
2018-03-06T04:37:17.201Z,25.00
2018-03-06T04:38:17.168Z,25.90
2018-03-06T04:39:17.153Z,26.80
2018-03-06T04:40:17.137Z,25.30
2018-03-06T04:41:17.119Z,25.60
2018-03-06T04:42:17.095Z,27.00
2018-03-06T04:43:38.098Z,25.70
2018-03-06T04:44:17.083Z,28.00
2018-03-06T04:45:17.071Z,25.00
2018-03-06T04:46:17.079Z,26.50
2018-03-06T04:47:17.069Z,25.20
2018-03-06T04:48:16.992Z,26.00
2018-03-06T04:49:16.995Z,26.70
2018-03-06T04:50:16.974Z,27.50
2018-03-06T04:51:16.947Z,24.80
2018-03-06T04:52:16.925Z,25.90
2018-03-06T04:53:16.922Z,26.90
2018-03-06T04:54:16.895Z,26.70
2018-03-06T04:55:16.875Z,27.70
2018-03-06T04:56:16.877Z,27.50
2018-03-06T04:57:16.843Z,26.10
2018-03-06T04:58:16.826Z,25.40
2018-03-06T04:59:16.808Z,28.60
2018-03-06T05:00:16.792Z,26.30
2018-03-06T05:01:16.795Z,27.30
2018-03-06T05:02:16.758Z,29.30
2018-03-06T05:03:16.739Z,29.00
2018-03-06T05:04:16.727Z,27.00
2018-03-06T05:05:16.704Z,27.60
2018-03-06T05:06:16.704Z,27.30
2018-03-06T05:07:16.675Z,28.70
2018-03-06T05:08:16.658Z,26.10
2018-03-06T05:09:16.663Z,27.80
2018-03-06T05:10:16.617Z,29.60
2018-03-06T05:11:16.598Z,29.70
2018-03-06T05:12:16.583Z,27.50
2018-03-06T05:13:16.567Z,28.00
2018-03-06T05:14:16.569Z,27.50
2018-03-06T05:15:16.527Z,26.90
2018-03-06T05:16:16.512Z,30.50
2018-03-06T05:17:16.496Z,30.10
2018-03-06T05:18:16.476Z,29.80
2018-03-06T05:19:16.462Z,31.20
2018-03-06T05:20:16.456Z,30.60
2018-03-06T05:21:16.445Z,29.70
2018-03-06T05:22:16.409Z,28.50
2018-03-06T05:23:16.394Z,28.80
2018-03-06T05:24:16.370Z,26.90
2018-03-06T05:25:16.372Z,29.60
2018-03-06T05:26:16.340Z,29.10
2018-03-06T05:27:16.341Z,26.40
2018-03-06T05:28:16.307Z,27.90
2018-03-06T05:29:16.284Z,28.50
2018-03-06T05:30:16.274Z,29.10
2018-03-06T05:31:16.253Z,29.30
2018-03-06T05:32:16.236Z,30.40
2018-03-06T05:33:16.231Z,27.30
2018-03-06T05:34:16.194Z,28.70
2018-03-06T05:35:16.182Z,28.30
2018-03-06T05:36:16.168Z,27.80
2018-03-06T05:37:16.153Z,28.90
2018-03-06T05:38:16.144Z,29.00
2018-03-06T05:39:16.126Z,28.50
2018-03-06T05:40:16.119Z,30.80
2018-03-06T05:41:16.082Z,28.90
2018-03-06T05:42:16.067Z,29.30
2018-03-06T05:43:16.046Z,28.60
2018-03-06T05:44:16.038Z,29.90
2018-03-06T05:45:16.025Z,29.10
2018-03-06T05:46:15.989Z,29.00
2018-03-06T05:47:15.974Z,27.80
2018-03-06T05:48:15.954Z,30.10
2018-03-06T05:49:15.935Z,28.30
2018-03-06T05:50:15.932Z,29.20
2018-03-06T05:51:15.912Z,28.00
2018-03-06T05:52:15.884Z,29.90
2018-03-06T05:53:15.937Z,28.90
2018-03-06T05:54:15.871Z,30.90
2018-03-06T05:55:15.833Z,28.40
2018-03-06T05:56:15.846Z,28.20
2018-03-06T05:57:15.818Z,29.40
2018-03-06T05:58:15.818Z,31.80
2018-03-06T05:59:15.770Z,30.40
2018-03-06T06:00:15.789Z,30.50
2018-03-06T06:01:15.738Z,29.30
2018-03-06T06:02:15.730Z,29.50
2018-03-06T06:03:15.716Z,29.00
2018-03-06T06:04:15.720Z,30.20
2018-03-06T06:05:15.670Z,29.70
2018-03-06T06:06:15.677Z,29.40
2018-03-06T06:07:15.677Z,29.80
2018-03-06T06:08:15.645Z,32.10
2018-03-06T06:09:15.598Z,29.60
2018-03-06T06:10:15.585Z,32.30
2018-03-06T06:11:15.615Z,32.70
2018-03-06T06:12:15.588Z,31.30
2018-03-06T06:13:15.533Z,30.80
2018-03-06T06:14:15.550Z,30.00
2018-03-06T06:15:15.532Z,31.30
2018-03-06T06:16:15.533Z,29.90
2018-03-06T06:17:15.490Z,31.00
2018-03-06T06:18:15.485Z,31.00
2018-03-06T06:19:15.500Z,30.40
2018-03-06T06:20:15.471Z,29.20
2018-03-06T06:21:15.469Z,28.00
2018-03-06T06:22:15.475Z,31.60
2018-03-06T06:23:15.434Z,30.90
2018-03-06T06:24:15.427Z,29.50
2018-03-06T06:25:15.430Z,32.10
2018-03-06T06:26:15.370Z,31.00
2018-03-06T06:27:15.317Z,33.50
2018-03-06T06:28:15.414Z,30.90
2018-03-06T06:29:16.189Z,30.40
2018-03-06T06:30:16.177Z,30.80
2018-03-06T06:31:15.331Z,32.40
2018-03-06T06:32:15.235Z,29.90
2018-03-06T06:33:15.231Z,31.50
2018-03-06T06:34:15.194Z,30.00
2018-03-06T06:35:15.168Z,32.60
2018-03-06T06:36:15.134Z,29.80
2018-03-06T06:37:15.127Z,31.00
2018-03-06T06:38:15.747Z,33.80
2018-03-06T06:39:15.087Z,29.60
2018-03-06T06:40:15.137Z,30.50
2018-03-06T06:41:15.121Z,32.60
2018-03-06T06:42:15.057Z,30.30
2018-03-06T06:43:15.058Z,30.90
2018-03-06T06:44:14.982Z,30.40
2018-03-06T06:45:14.963Z,32.00
2018-03-06T06:46:14.951Z,30.70
2018-03-06T06:47:14.924Z,32.70
2018-03-06T06:48:14.906Z,33.30
2018-03-06T06:49:14.891Z,31.60
2018-03-06T06:50:35.886Z,34.30
2018-03-06T06:51:14.851Z,31.50
2018-03-06T06:52:14.846Z,37.10
2018-03-06T06:53:14.819Z,34.40
2018-03-06T06:54:14.802Z,32.30
2018-03-06T06:55:14.781Z,34.20
2018-03-06T06:56:14.781Z,32.30
2018-03-06T06:57:14.753Z,31.60
2018-03-06T06:58:14.735Z,32.70
2018-03-06T06:59:14.709Z,32.50
2018-03-06T07:00:14.693Z,35.20
2018-03-06T07:01:14.700Z,30.70
2018-03-06T07:02:14.658Z,32.40
2018-03-06T07:03:14.640Z,31.00
2018-03-06T07:04:14.654Z,29.80
2018-03-06T07:05:14.608Z,31.90
2018-03-06T07:06:14.590Z,31.30
2018-03-06T07:07:14.633Z,33.40
2018-03-06T07:08:14.556Z,31.80
2018-03-06T07:09:14.547Z,33.60
2018-03-06T07:10:14.525Z,32.60
2018-03-06T07:11:14.631Z,34.30
2018-03-06T07:12:14.507Z,31.50
2018-03-06T07:13:14.480Z,33.00
2018-03-06T07:14:14.448Z,35.80
2018-03-06T07:15:14.438Z,34.00
2018-03-06T07:16:14.428Z,34.60
2018-03-06T07:17:14.403Z,32.40
2018-03-06T07:18:14.384Z,33.40
2018-03-06T07:19:14.364Z,32.60
2018-03-06T07:20:14.367Z,36.10
2018-03-06T07:21:14.366Z,32.30
2018-03-06T07:22:14.328Z,32.30
2018-03-06T07:23:14.314Z,35.00
2018-03-06T07:24:14.282Z,34.00
2018-03-06T07:25:14.259Z,33.40
2018-03-06T07:26:14.248Z,31.60
2018-03-06T07:27:14.276Z,32.30
2018-03-06T07:28:14.211Z,31.70
2018-03-06T07:29:14.192Z,33.30
2018-03-06T07:30:14.179Z,32.70
2018-03-06T07:31:14.181Z,33.10
2018-03-06T07:32:14.142Z,35.60
2018-03-06T07:33:14.144Z,35.90
2018-03-06T07:34:14.113Z,31.20
2018-03-06T07:35:14.098Z,34.40
2018-03-06T07:36:14.137Z,33.30
2018-03-06T07:37:14.053Z,33.60
2018-03-06T07:38:14.044Z,33.90
2018-03-06T07:39:14.040Z,36.90
2018-03-06T07:40:14.009Z,34.40
2018-03-06T07:41:13.989Z,34.40
2018-03-06T07:42:13.987Z,33.00
2018-03-06T07:43:13.958Z,34.00
2018-03-06T07:44:13.962Z,35.10
2018-03-06T07:45:13.923Z,34.60
2018-03-06T07:46:13.907Z,36.20
2018-03-06T07:47:13.887Z,32.50
2018-03-06T07:48:13.886Z,34.00
2018-03-06T07:49:13.870Z,36.60
2018-03-06T07:50:13.837Z,35.20
2018-03-06T07:51:13.824Z,37.30
2018-03-06T07:52:13.802Z,36.40
2018-03-06T07:53:13.783Z,35.80
2018-03-06T07:54:13.764Z,35.20
2018-03-06T07:55:13.773Z,36.20
2018-03-06T07:56:13.735Z,34.20
2018-03-06T07:57:13.749Z,34.80
2018-03-06T07:58:13.729Z,32.70
2018-03-06T07:59:13.703Z,35.50
2018-03-06T08:00:13.666Z,33.70
2018-03-06T08:01:13.654Z,35.80
2018-03-06T08:02:13.639Z,35.40
2018-03-06T08:03:13.624Z,35.90
2018-03-06T08:04:13.604Z,34.30
2018-03-06T08:05:13.598Z,33.70
2018-03-06T08:06:13.585Z,34.70
2018-03-06T08:07:13.546Z,36.60
2018-03-06T08:08:13.541Z,38.30
2018-03-06T08:09:13.513Z,36.60
2018-03-06T08:10:13.502Z,35.40
2018-03-06T08:11:13.486Z,31.40
2018-03-06T08:12:13.481Z,36.30
2018-03-06T08:13:13.448Z,33.40
2018-03-06T08:14:34.445Z,35.50
2018-03-06T08:15:13.414Z,35.10
2018-03-06T08:16:13.404Z,36.80
2018-03-06T08:17:13.388Z,34.10
2018-03-06T08:18:13.369Z,34.70
2018-03-06T08:19:13.369Z,35.80
2018-03-06T08:20:13.343Z,35.60
2018-03-06T08:21:13.326Z,36.00
2018-03-06T08:22:13.305Z,35.80
2018-03-06T08:23:13.286Z,34.20
2018-03-06T08:24:13.284Z,35.40
2018-03-06T08:25:13.254Z,36.40
2018-03-06T08:26:13.238Z,36.60
2018-03-06T08:27:13.736Z,37.00
2018-03-06T08:28:13.206Z,37.10
2018-03-06T08:29:13.200Z,39.30
2018-03-06T08:30:13.205Z,38.50
2018-03-06T08:31:13.162Z,35.80
2018-03-06T08:32:13.145Z,34.20
2018-03-06T08:33:13.126Z,37.50
2018-03-06T08:34:13.115Z,33.90
2018-03-06T08:35:13.083Z,35.70
2018-03-06T08:36:13.086Z,34.60
2018-03-06T08:37:13.061Z,37.40
2018-03-06T08:38:13.037Z,36.20
2018-03-06T08:39:13.019Z,36.40
2018-03-06T08:40:12.998Z,36.40
2018-03-06T08:41:13.006Z,34.90
2018-03-06T08:42:12.983Z,35.20
2018-03-06T08:43:12.966Z,34.70
2018-03-06T08:44:12.950Z,34.10
2018-03-06T08:45:12.976Z,35.10
2018-03-06T08:46:12.916Z,36.40
2018-03-06T08:47:13.699Z,36.20
2018-03-06T08:48:12.887Z,35.80
2018-03-06T08:49:12.869Z,35.80
2018-03-06T08:50:12.868Z,36.60
2018-03-06T08:51:12.871Z,35.40
2018-03-06T08:52:12.845Z,35.30
2018-03-06T08:53:12.814Z,35.00
2018-03-06T08:54:12.846Z,36.80
2018-03-06T08:55:12.795Z,36.40
2018-03-06T08:56:12.776Z,34.60
2018-03-06T08:57:12.765Z,35.10
2018-03-06T08:58:12.758Z,37.00
2018-03-06T08:59:12.715Z,34.60
2018-03-06T09:00:12.731Z,34.30
2018-03-06T09:01:12.776Z,37.00
2018-03-06T09:02:12.723Z,33.40
2018-03-06T09:03:12.762Z,35.30
2018-03-06T09:04:12.714Z,35.00
2018-03-06T09:05:12.698Z,34.80
2018-03-06T09:06:12.646Z,33.70
2018-03-06T09:07:12.694Z,36.00
2018-03-06T09:08:12.620Z,34.30
2018-03-06T09:09:12.668Z,34.90
2018-03-06T09:10:12.623Z,31.20
2018-03-06T09:11:12.573Z,31.70
2018-03-06T09:12:12.558Z,29.60
2018-03-06T09:13:12.509Z,31.10
2018-03-06T09:14:12.526Z,31.00
2018-03-06T09:15:12.556Z,31.80
2018-03-06T09:16:12.510Z,32.10
2018-03-06T09:17:12.505Z,31.00
2018-03-06T09:18:12.505Z,31.30
2018-03-06T09:19:12.459Z,33.60
2018-03-06T09:20:12.422Z,33.50
2018-03-06T09:21:12.408Z,32.30
2018-03-06T09:22:12.409Z,32.80
2018-03-06T09:23:12.373Z,33.70
2018-03-06T09:24:12.358Z,33.20
2018-03-06T09:25:12.376Z,33.10
2018-03-06T09:26:12.347Z,35.10
2018-03-06T09:27:12.361Z,33.70
2018-03-06T09:28:12.254Z,31.30
2018-03-06T09:29:12.357Z,33.60
2018-03-06T09:30:12.309Z,34.80
2018-03-06T09:31:12.263Z,34.00
2018-03-06T09:32:12.319Z,33.80
2018-03-06T09:33:12.271Z,32.70
2018-03-06T09:34:12.219Z,32.20
2018-03-06T09:35:12.282Z,35.50
2018-03-06T09:36:12.252Z,34.50
2018-03-06T09:37:12.257Z,33.30
2018-03-06T09:38:12.355Z,32.90
2018-03-06T09:39:12.196Z,33.90
2018-03-06T09:40:12.136Z,34.60
2018-03-06T09:41:13.311Z,35.10
2018-03-06T09:42:12.130Z,36.80
2018-03-06T09:43:12.110Z,32.50
2018-03-06T09:44:12.048Z,32.30
2018-03-06T09:45:12.105Z,33.40
2018-03-06T09:46:12.064Z,35.30
2018-03-06T09:47:12.046Z,34.70
2018-03-06T09:48:12.031Z,35.10
2018-03-06T09:49:12.000Z,33.30
2018-03-06T09:50:11.978Z,33.90
2018-03-06T09:51:11.926Z,35.10
2018-03-06T09:52:11.926Z,34.60
2018-03-06T09:53:11.905Z,35.50
2018-03-06T09:54:11.892Z,34.70
2018-03-06T09:55:11.879Z,33.90
2018-03-06T09:56:11.842Z,35.50
2018-03-06T09:57:11.822Z,33.20
2018-03-06T09:58:11.823Z,32.00
2018-03-06T09:59:11.865Z,31.70
2018-03-06T10:12:36.680Z,30.40
2018-03-06T10:13:36.624Z,30.50
2018-03-06T10:14:36.605Z,31.30
2018-03-06T10:15:36.596Z,31.40
2018-03-06T10:16:36.601Z,31.10
2018-03-06T10:17:36.575Z,31.40
2018-03-06T10:18:36.553Z,30.20
2018-03-06T10:19:36.543Z,29.50
2018-03-06T10:20:36.541Z,28.40
2018-03-06T10:21:36.526Z,30.90
2018-03-06T10:22:36.533Z,33.00
2018-03-06T10:23:36.524Z,30.60
2018-03-06T10:24:36.490Z,29.50
2018-03-06T10:25:36.501Z,29.50
2018-03-06T10:26:36.496Z,30.90
2018-03-06T10:27:36.463Z,29.60
2018-03-06T10:28:36.450Z,31.00
2018-03-06T10:29:36.438Z,30.80
2018-03-06T10:30:36.442Z,32.30
2018-03-06T10:31:36.423Z,30.50
2018-03-06T10:32:36.448Z,30.40
2018-03-06T10:33:36.409Z,28.60
2018-03-06T10:34:36.396Z,29.20
2018-03-06T10:35:36.391Z,28.20
2018-03-06T10:36:36.387Z,28.30
2018-03-06T10:37:36.389Z,28.10
2018-03-06T10:38:36.361Z,28.50
2018-03-06T10:39:36.351Z,28.80
2018-03-06T10:40:36.361Z,28.30
2018-03-06T10:41:36.371Z,27.40
2018-03-06T10:42:36.327Z,26.50
2018-03-06T10:43:36.345Z,26.80
2018-03-06T10:44:36.325Z,26.70
2018-03-06T10:45:36.301Z,26.40
2018-03-06T10:46:36.309Z,26.80
2018-03-06T10:47:36.302Z,26.60
2018-03-06T10:48:36.295Z,26.60
2018-03-06T10:49:36.345Z,30.40
2018-03-06T10:50:36.266Z,27.60
2018-03-06T10:51:36.268Z,29.50
2018-03-06T10:52:36.252Z,29.60
2018-03-06T10:53:36.235Z,31.80
2018-03-06T10:54:36.235Z,27.10
2018-03-06T10:55:36.233Z,29.40
2018-03-06T10:56:36.202Z,28.30
2018-03-06T10:57:36.195Z,28.50
2018-03-06T10:58:36.195Z,27.20
2018-03-06T10:59:36.188Z,28.40
2018-03-06T11:00:36.186Z,27.30
2018-03-06T11:01:36.150Z,27.60
2018-03-06T11:02:36.131Z,28.00
2018-03-06T11:03:36.124Z,28.20
2018-03-06T11:04:36.126Z,27.80
2018-03-06T11:05:36.112Z,25.60
2018-03-06T11:06:36.127Z,26.50
2018-03-06T11:07:36.096Z,25.80
2018-03-06T11:08:36.068Z,24.50
2018-03-06T11:09:36.058Z,25.20
2018-03-06T11:10:36.057Z,26.70
2018-03-06T11:11:36.056Z,25.70
2018-03-06T11:12:36.027Z,25.20
2018-03-06T11:13:36.006Z,25.00
2018-03-06T11:14:36.003Z,24.50
2018-03-06T11:15:35.984Z,25.70
2018-03-06T11:16:36.009Z,25.90
2018-03-06T11:17:36.017Z,24.30
2018-03-06T11:18:35.971Z,23.40
2018-03-06T11:19:35.939Z,22.80
2018-03-06T11:20:35.930Z,24.80
2018-03-06T11:21:35.956Z,23.00
2018-03-06T11:22:35.932Z,23.40
2018-03-06T11:23:35.907Z,22.70
2018-03-06T11:24:36.683Z,24.10
2018-03-06T11:25:35.888Z,23.50
2018-03-06T11:26:35.870Z,25.00
2018-03-06T11:27:35.973Z,24.10
2018-03-06T11:28:35.841Z,23.40
2018-03-06T11:29:35.845Z,22.80
2018-03-06T11:30:35.814Z,22.60
2018-03-06T11:31:35.820Z,25.10
2018-03-06T11:32:56.833Z,20.50
2018-03-06T11:33:35.786Z,22.80
2018-03-06T11:34:35.791Z,23.50
2018-03-06T11:35:35.771Z,22.00
2018-03-06T11:36:35.769Z,21.90
2018-03-06T11:37:35.745Z,23.40
2018-03-06T11:38:35.757Z,20.90
2018-03-06T11:39:35.734Z,21.80
2018-03-06T11:40:35.709Z,22.50
2018-03-06T11:41:35.702Z,22.10
2018-03-06T11:42:35.693Z,21.20
2018-03-06T11:43:35.680Z,21.70
2018-03-06T11:44:35.682Z,24.40
2018-03-06T11:45:35.679Z,24.00
2018-03-06T11:46:35.645Z,25.10
2018-03-06T11:47:35.642Z,22.70
2018-03-06T11:48:35.633Z,23.40
2018-03-06T11:49:35.624Z,21.90
2018-03-06T11:50:35.624Z,24.40
2018-03-06T11:51:35.625Z,23.50
2018-03-06T11:52:35.589Z,23.10
2018-03-06T11:53:35.578Z,23.80
2018-03-06T11:54:35.565Z,23.20
2018-03-06T11:55:35.574Z,21.10
2018-03-06T11:56:35.560Z,21.80
2018-03-06T11:57:35.541Z,22.00
2018-03-06T11:58:35.536Z,22.40
2018-03-06T11:59:35.527Z,19.50
2018-03-06T12:00:35.514Z,19.00
2018-03-06T12:01:35.524Z,22.80
2018-03-06T12:02:35.491Z,20.00
2018-03-06T12:03:35.483Z,21.00
2018-03-06T12:04:35.474Z,21.00
2018-03-06T12:05:35.468Z,21.20
2018-03-06T12:06:35.457Z,19.50
2018-03-06T12:07:35.464Z,21.40
2018-03-06T12:08:35.451Z,18.30
2018-03-06T12:09:35.432Z,18.40
2018-03-06T12:10:35.426Z,17.60
2018-03-06T12:11:35.434Z,19.80
2018-03-06T12:12:35.438Z,16.10
2018-03-06T12:13:35.442Z,16.40
2018-03-06T12:14:35.443Z,16.70
2018-03-06T12:15:35.365Z,15.80
2018-03-06T12:16:35.369Z,14.50
2018-03-06T12:17:35.350Z,13.80
2018-03-06T12:18:35.356Z,15.00
2018-03-06T12:19:35.346Z,14.20
2018-03-06T12:20:35.339Z,14.30
2018-03-06T12:21:35.319Z,13.20
2018-03-06T12:22:35.307Z,13.90
2018-03-06T12:23:35.315Z,13.40
2018-03-06T12:24:36.337Z,15.50
2018-03-06T12:25:35.285Z,12.80
2018-03-06T12:26:35.278Z,12.90
2018-03-06T12:27:35.272Z,13.40
2018-03-06T12:28:35.268Z,13.90
2018-03-06T12:29:56.354Z,13.90
2018-03-06T12:30:35.251Z,13.30
2018-03-06T12:31:35.248Z,13.80
2018-03-06T12:32:35.228Z,12.80
2018-03-06T12:33:35.216Z,13.30
2018-03-06T12:34:35.208Z,13.00
2018-03-06T12:35:35.235Z,13.30
2018-03-06T12:36:35.192Z,14.20
2018-03-06T12:37:35.190Z,14.10
2018-03-06T12:38:35.174Z,14.70
2018-03-06T12:39:35.164Z,13.30
2018-03-06T12:40:35.168Z,13.80
2018-03-06T12:41:35.166Z,14.20
2018-03-06T12:42:35.162Z,13.50
2018-03-06T12:43:35.166Z,14.00
2018-03-06T12:44:35.130Z,14.20
2018-03-06T12:45:35.146Z,14.10
2018-03-06T12:46:35.114Z,13.80
2018-03-06T12:47:35.108Z,13.70
2018-03-06T12:48:35.092Z,15.30
2018-03-06T12:49:35.086Z,14.00
2018-03-06T12:50:35.073Z,16.10
2018-03-06T12:51:35.080Z,14.70
2018-03-06T12:52:35.066Z,13.30
2018-03-06T12:53:35.109Z,13.30
2018-03-06T12:54:35.035Z,13.20
2018-03-06T12:55:35.024Z,13.20
2018-03-06T12:56:35.179Z,12.80
2018-03-06T12:57:35.008Z,12.70
2018-03-06T12:58:35.060Z,13.60
2018-03-06T12:59:56.015Z,13.10
2018-03-06T13:00:34.978Z,12.90
2018-03-06T13:01:34.982Z,13.30
2018-03-06T13:02:34.963Z,13.10
2018-03-06T13:03:34.967Z,14.90
2018-03-06T13:04:34.973Z,13.50